| Station | Date | Time | Temp (°F) | RH (%) | Dew Pt (°F) | Wind Dir (°) | Wind Spd (mph) | Wind Gust (mph) | Solar Rad (W/m2) | Pressure (mb) | Daily Min Temp (°F) | Daily Max Temp (°F) | Daily Max Wind (mph) | Daily Rain (In) | Yest MinT (°F) | Yest MaxT (°F) | Yest MaxGst (mph) | Yest Precip (In) | MinBV Day (V) |
|---|---|---|---|---|---|---|---|---|---|---|---|---|---|---|---|---|---|---|---|
| MWA Office | 8/30/26 | 2315 | 78.0 1.5 | 25 15 | 39.2 14.1 | S | 186 | 2.5 2.7 | 9.2 0.2 | 0 0 | 1,009.8 0.1 | 68.6 0.3 | 95.3 2.2 | 28.1 1.1 | 0.00 | 68.2 | 97.5 | 27.0 | 0.00 | 12.4 0.0 |
| MWA OPS | 8/30/26 | 2315 | 77.1 0.0 | 25 23 | 38.3 17.3 | SW | 221 | 5.6 4.7 | 11.0 7.9 | 0 0 | 1,009.6 0.3 | 65.0 6.7 | 93.1 1.4 | 25.9 1.8 | 0.00 | 71.7 | 94.5 | 27.6 | 0.00 | 12.8 0.0 |
| LV-PS | 8/30/26 | 2330 | 75.5 4.8 | 33 9 | 44.2 10.6 | WNW | 294 | 3.8 5.3 | 7.9 7.7 | 0 0 | 1,008.8 0.3 | 73.8 0.6 | 97.8 4.4 | 22.4 7.4 | 0.00 | 73.2 | 102.2 | 29.8 | 0.00 | 12.8 0.0 |
| JV-PS | 8/30/26 | 2315 | 77.6 4.9 | 32 2 | 45.7 6.2 | ESE | 114 | 4.9 3.6 | 9.6 7.7 | 0 0 | 1,008.5 0.4 | 74.7 2.9 | 97.8 3.5 | 23.0 19.3 | 0.00 | 71.7 | 101.3 | 42.3 | 0.00 | 12.8 0.0 |
| BDVWA | 8/30/26 | 2315 | 76.3 2.7 | 34 4 | 46.3 5.2 | NNW | 333 | 3.5 0.5 | 5.7 0.2 | 0 0 | 1,008.3 0.0 | 69.3 4.7 | 93.5 4.0 | 31.8 0.7 | 0.00 | 74.0 | 97.5 | 32.4 | 0.00 | 12.8 0.0 |
| Newberry Springs | 8/30/26 | 2315 | 86.9 0.3 | 24 7 | 45.9 6.7 | WSW | 246 | 15.1 5.4 | 25.0 5.9 | 0 0 | 1,006.7 0.8 | 78.9 1.5 | 101.5 3.8 | 27.0 0.4 | 0.00 | 80.4 | 105.3 | 26.5 | 0.00 | 12.9 0.0 |
| Pinon Hills | 8/30/26 | 2315 | 71.9 3.2 | 36 17 | 43.6 7.6 | SSW | 210 | 5.3 3.6 | 17.8 14.0 | 0 0 | 1,009.2 2.1 | 62.5 6.0 | 86.0 1.3 | 40.6 13.4 | 0.00 | 68.5 | 87.3 | 27.2 | 0.00 | 12.9 0.1 |
| Helendale | 8/30/26 | 2315 | 77.0 3.1 | 40 2 | 50.8 1.6 | SSW | 203 | 4.0 1.5 | 6.8 3.7 | 0 0 | 1,009.4 0.5 | 71.9 1.5 | 98.5 2.8 | 28.9 0.2 | 0.00 | 70.3 | 101.3 | 29.2 | 0.00 | 12.7 0.0 |
| Lenwood | 8/30/26 | 2315 | 78.8 1.9 | 35 0 | 48.6 1.8 | SW | 236 | 5.5 3.7 | 9.0 4.6 | 0 0 | 1,009.1 0.2 | 71.6 1.8 | 100.1 2.2 | 26.1 5.9 | 0.00 | 69.8 | 102.3 | 32.0 | 0.00 | 12.3 0.1 |
| Oak Hills | 8/30/26 | 2315 | 64.1 5.1 | 80 15 | 57.7 1.0 | SW | 214 | 8.6 5.9 | 15.8 11.0 | 0 0 | 1,012.0 0.5 | 63.8 5.3 | 87.9 2.5 | 24.6 3.7 | 0.00 | 68.0 | 90.4 | 20.8 | 0.00 | 13.0 0.0 |
| Pipes Wash Canyon | 8/30/26 | 2315 | 76.2 0.6 | 26 11 | 39.2 8.8 | SW | 230 | 3.5 1.3 | 7.9 1.8 | 0 0 | 1,007.1 0.9 | 67.4 3.7 | 90.9 3.1 | 22.6 2.6 | 0.00 | 69.2 | 94.0 | 20.0 | 0.00 | 12.8 0.0 |
| Max | 86.9 | 80 | 57.7 | - | 15.1 | 25.0 | 0 | 1,012.0 | 78.9 | 101.5 | 40.6 | 0.00 | 80.4 | 105.3 | 42.3 | 0.00 | 13.0 | ||
| Avg | 76.3 | 35 | 45.4 | - | 5.6 | 11.4 | 0 | 1,009.0 | - | - | - | - | - | - | - | - | - | ||
| Min | 64.1 | 24 | 38.3 | - | 2.5 | 5.7 | 0 | 1,006.7 | 62.5 | 86.0 | 22.4 | 0.00 | 68.0 | 87.3 | 20.0 | 0.00 | 12.3 |
| Station | Date | Time | Latest Rain (In) | Daily Rain (In) | Yest Precip (In) | Month Precip (In) | Season Precip (In) | Daily ETo (in) | Yest ETo (In) | 7 Day ETo (in) |
|---|---|---|---|---|---|---|---|---|---|---|
| MWA Office | 8/30/26 | 2315 | 0.00 | 0.00 | 0.00 | 0.00 | 0.00 | 0.267 | 0.29 | 1.86 |
| MWA OPS | 8/30/26 | 2315 | 0.00 | 0.00 | 0.00 | 0.00 | 0.00 | 0.292 | 0.31 | 2.03 |
| LV-PS | 8/30/26 | 2330 | 0.00 | 0.00 | 0.00 | 0.33 | 0.34 | 0.280 | 0.32 | 1.96 |
| JV-PS | 8/30/26 | 2315 | 0.00 | 0.00 | 0.00 | 0.06 | 0.06 | 0.294 | 0.32 | 1.91 |
| BDVWA | 8/30/26 | 2315 | 0.00 | 0.00 | 0.00 | 0.00 | 0.00 | 0.300 | 0.30 | 2.15 |
| Newberry Springs | 8/30/26 | 2315 | 0.00 | 0.00 | 0.00 | 1.97 | 1.97 | 0.322 | 0.38 | 2.39 |
| Pinon Hills | 8/30/26 | 2315 | 0.00 | 0.00 | 0.00 | 0.15 | 0.19 | 0.271 | 0.23 | 1.80 |
| Helendale | 8/30/26 | 2315 | 0.00 | 0.00 | 0.00 | 0.00 | 0.00 | 0.283 | 0.32 | 2.19 |
| Lenwood | 8/30/26 | 2315 | 0.00 | 0.00 | 0.00 | 0.09 | 0.09 | 0.286 | 0.32 | 2.13 |
| Oak Hills | 8/30/26 | 2315 | 0.00 | 0.00 | 0.00 | 0.00 | 0.00 | 0.261 | 0.25 | 1.85 |
| Pipes Wash Canyon | 8/30/26 | 2315 | 0.00 | 0.00 | 0.00 | 0.00 | 0.00 | 0.244 | 0.24 | 1.73 |
| Max | 0.00 | 0.00 | 0.00 | 1.97 | 1.97 | 0.322 | 0.38 | 2.39 | ||
| Avg | 0.00 | - | - | - | - | - | - | - | ||
| Min | 0.00 | 0.00 | 0.00 | 0.00 | 0.00 | 0.244 | 0.23 | 1.73 |